Time;durP1;ratioP1;P1;durP2;ratioP2;P2;SDS_P1;SDS_P2;PMS_P1;PMS_P2;Temp;Humidity;BMP_temperature;BMP_pressure;BME280_temperature;BME280_humidity;BME280_pressure;Samples;Min_cycle;Max_cycle;Signal;HPM_P1;HPM_P2
2023/03/24 00:04:51;;;;;;;8.70;5.50;;;;;;;13.29;64.30;98515.04;271491;1270;22586;-85
2023/03/24 00:10:53;;;;;;;10.00;5.70;;;;;;;13.21;64.73;98509.99;270599;1269;22561;-84
2023/03/24 00:16:57;;;;;;;9.60;5.50;;;;;;;13.13;65.22;98507.52;269846;1270;22838;-85
2023/03/24 00:23:21;;;;;;;9.70;5.20;;;;;;;13.08;65.46;98508.58;270189;1271;22393;-85
2023/03/24 00:29:24;;;;;;;9.50;5.50;;;;;;;13.05;65.59;98513.08;272612;1270;23170;-85
2023/03/24 00:35:34;;;;;;;7.70;5.30;;;;;;;13.06;65.76;98510.25;272465;1270;22407;-84
2023/03/24 00:41:57;;;;;;;9.40;5.10;;;;;;;13.16;65.61;98507.04;271770;1270;22545;-85
2023/03/24 00:47:59;;;;;;;12.10;5.70;;;;;;;13.25;65.55;98505.63;271522;1272;22452;-86
2023/03/24 00:54:02;;;;;;;9.10;5.10;;;;;;;13.24;66.19;98488.84;270658;1273;23435;-85
2023/03/24 01:00:25;;;;;;;9.10;5.60;;;;;;;13.17;66.91;98483.40;270604;1271;24266;-85
2023/03/24 01:06:29;;;;;;;8.30;5.00;;;;;;;13.07;67.01;98483.14;271968;1270;23997;-84
2023/03/24 01:12:52;;;;;;;7.70;5.20;;;;;;;13.03;66.93;98483.98;271581;1270;25861;-84
2023/03/24 01:19:52;;;;;;;;;;;;;;;;;;;;;
2023/03/24 01:25:56;;;;;;;12.30;5.80;;;;;;;13.22;66.19;98469.21;271071;1271;25458;-85
2023/03/24 01:31:58;;;;;;;8.90;5.40;;;;;;;13.20;66.33;98460.75;270068;1272;22557;-84
2023/03/24 01:38:05;;;;;;;9.00;4.70;;;;;;;13.10;66.45;98463.04;270594;1261;24868;-84
2023/03/24 01:44:40;;;;;;;7.80;5.00;;;;;;;13.01;66.90;98463.09;269797;1272;23185;-85
2023/03/24 01:51:04;;;;;;;10.40;5.40;;;;;;;13.03;66.73;98455.30;269881;1271;22563;-85
2023/03/24 01:58:00;;;;;;;8.50;4.70;;;;;;;13.06;67.17;98451.35;269748;1271;22533;-85
2023/03/24 02:04:44;;;;;;;9.00;4.70;;;;;;;13.07;67.52;98454.57;269664;1270;22477;-84
2023/03/24 02:10:50;;;;;;;10.40;5.10;;;;;;;13.06;67.44;98454.27;271639;1270;22266;-85
2023/03/24 02:17:20;;;;;;;8.90;5.30;;;;;;;13.09;67.19;98444.66;270337;1271;22546;-85
2023/03/24 02:23:40;;;;;;;9.00;5.50;;;;;;;13.24;67.23;98441.65;270286;1270;23016;-84
2023/03/24 02:30:09;;;;;;;11.10;5.40;;;;;;;13.16;67.56;98436.77;271958;1271;23795;-85
2023/03/24 02:36:50;;;;;;;15.40;5.40;;;;;;;13.06;67.62;98430.09;272724;1270;22534;-84
2023/03/24 02:43:02;;;;;;;9.80;5.70;;;;;;;13.01;67.50;98429.42;271271;1272;22256;-85
2023/03/24 02:49:55;;;;;;;10.50;5.30;;;;;;;12.99;67.55;98430.98;272973;1272;22413;-85
2023/03/24 02:57:21;;;;;;;9.90;5.30;;;;;;;12.96;67.73;98420.95;272455;1270;23062;-85
2023/03/24 03:03:49;;;;;;;8.50;5.50;;;;;;;12.93;67.89;98417.66;273155;1271;23094;-85
2023/03/24 03:10:25;;;;;;;7.30;4.40;;;;;;;12.93;67.83;98407.63;271801;1270;22484;-85
2023/03/24 03:16:47;;;;;;;9.90;4.50;;;;;;;13.03;67.90;98399.17;273168;1270;22415;-85
2023/03/24 03:23:06;;;;;;;10.30;5.10;;;;;;;13.08;67.95;98393.33;272669;1271;23253;-85
2023/03/24 03:29:53;;;;;;;9.10;5.00;;;;;;;13.07;67.98;98394.67;271851;1271;22216;-85
2023/03/24 03:36:25;;;;;;;10.50;5.00;;;;;;;13.17;67.95;98399.61;273304;1270;23148;-86
2023/03/24 03:42:28;;;;;;;7.90;5.10;;;;;;;13.41;67.66;98400.34;272508;1270;22579;-86
2023/03/24 03:48:32;;;;;;;7.20;4.50;;;;;;;13.53;67.46;98396.77;272837;1271;22554;-85
2023/03/24 03:54:50;;;;;;;6.90;4.70;;;;;;;13.53;67.25;98388.11;271229;1271;22524;-84
2023/03/24 04:00:56;;;;;;;7.00;4.50;;;;;;;13.51;67.21;98382.72;271509;1272;24204;-86
2023/03/24 04:07:56;;;;;;;5.60;4.30;;;;;;;13.43;67.24;98378.08;273005;1270;22306;-86
2023/03/24 04:14:48;;;;;;;9.70;5.10;;;;;;;13.29;67.43;98373.52;271196;1255;22397;-87
2023/03/24 04:21:47;;;;;;;10.40;4.90;;;;;;;13.13;67.78;98372.33;273098;1271;22376;-85
2023/03/24 04:28:13;;;;;;;10.50;4.80;;;;;;;13.00;68.19;98375.33;269694;1271;22574;-85
2023/03/24 04:34:43;;;;;;;8.30;5.20;;;;;;;12.88;68.68;98376.52;269483;1271;23266;-85
2023/03/24 04:40:57;;;;;;;10.60;5.40;;;;;;;12.73;69.50;98381.25;269064;1272;22643;-84
2023/03/24 04:47:01;;;;;;;8.20;4.90;;;;;;;12.58;70.48;98388.34;266104;1271;5236722;-85
2023/03/24 04:53:04;;;;;;;10.60;6.00;;;;;;;12.45;71.84;98394.63;269846;1271;22270;-85
2023/03/24 04:59:27;;;;;;;9.40;5.70;;;;;;;12.34;71.63;98395.63;273128;1271;22465;-86
2023/03/24 05:05:31;;;;;;;8.30;5.90;;;;;;;12.27;72.05;98400.92;272200;1271;23806;-85
2023/03/24 05:11:34;;;;;;;13.80;6.40;;;;;;;12.21;73.05;98403.61;270861;1270;22620;-85
2023/03/24 05:18:15;;;;;;;11.20;7.10;;;;;;;12.13;73.58;98403.02;271476;1268;22442;-86
2023/03/24 05:24:17;;;;;;;12.10;7.30;;;;;;;12.03;74.40;98404.95;272823;1271;22443;-85
2023/03/24 05:30:20;;;;;;;8.30;6.00;;;;;;;11.95;75.13;98411.55;270825;1270;25278;-85
2023/03/24 05:36:24;;;;;;;16.40;6.90;;;;;;;11.92;75.37;98414.70;269339;1271;24004;-86
2023/03/24 05:42:34;;;;;;;13.30;7.00;;;;;;;11.92;76.25;98414.23;270678;1264;22446;-84
2023/03/24 05:48:37;;;;;;;8.90;6.60;;;;;;;11.91;76.98;98416.35;270933;1271;22163;-86
2023/03/24 05:55:00;;;;;;;12.20;7.10;;;;;;;11.91;77.64;98415.80;270330;1271;22749;-85
2023/03/24 06:01:09;;;;;;;10.90;7.40;;;;;;;11.92;78.17;98419.02;271377;1271;22560;-85
2023/03/24 06:07:11;;;;;;;11.30;7.60;;;;;;;11.95;79.15;98423.16;271591;1271;22246;-85
2023/03/24 06:13:35;;;;;;;9.30;7.80;;;;;;;12.00;80.00;98429.73;269416;1270;25464;-84
2023/03/24 06:19:39;;;;;;;13.10;8.10;;;;;;;12.04;81.00;98433.85;270029;1271;22629;-84
2023/03/24 06:26:02;;;;;;;10.90;7.40;;;;;;;12.09;81.87;98429.22;273020;1271;22310;-85
2023/03/24 06:32:19;;;;;;;13.00;6.80;;;;;;;12.16;81.87;98430.67;272990;1272;22124;-85
2023/03/24 06:38:21;;;;;;;9.10;6.50;;;;;;;12.25;81.78;98433.30;273240;1271;22228;-85
2023/03/24 06:44:23;;;;;;;10.40;7.60;;;;;;;12.35;81.45;98427.92;271416;1271;22586;-84
2023/03/24 06:50:28;;;;;;;11.50;7.90;;;;;;;12.44;81.82;98424.27;270791;1261;22563;-84
2023/03/24 06:57:04;;;;;;;10.80;7.60;;;;;;;12.52;81.97;98417.01;270693;1271;22534;-85
2023/03/24 07:03:26;;;;;;;11.40;7.10;;;;;;;12.65;81.96;98412.21;270259;1272;22542;-84
2023/03/24 07:09:46;;;;;;;8.90;7.00;;;;;;;12.92;82.10;98409.20;270934;1259;22475;-84
2023/03/24 07:16:09;;;;;;;7.60;6.20;;;;;;;13.19;82.00;98411.61;270744;1271;22522;-84
2023/03/24 07:22:12;;;;;;;10.60;7.60;;;;;;;13.50;82.43;98410.85;273014;1271;22456;-84
2023/03/24 07:28:54;;;;;;;10.60;7.00;;;;;;;13.77;82.31;98406.56;272053;1271;22641;-84
2023/03/24 07:35:23;;;;;;;8.50;6.40;;;;;;;14.02;82.08;98399.42;273053;1271;23072;-86
2023/03/24 07:42:06;;;;;;;9.60;7.30;;;;;;;14.23;81.74;98392.65;273118;1272;22284;-85
2023/03/24 07:48:48;;;;;;;10.60;6.50;;;;;;;14.45;81.04;98387.81;271955;1277;23519;-85
2023/03/24 07:54:51;;;;;;;8.30;6.40;;;;;;;14.66;80.49;98386.48;271943;1278;23051;-85
2023/03/24 08:01:19;;;;;;;10.20;6.30;;;;;;;14.93;79.70;98377.16;271878;1277;22436;-85
2023/03/24 08:07:42;;;;;;;8.60;6.30;;;;;;;15.38;79.87;98368.44;271841;1277;22872;-85
2023/03/24 08:13:44;;;;;;;8.60;6.30;;;;;;;15.91;78.95;98361.15;271915;1277;22450;-85
2023/03/24 08:19:47;;;;;;;8.40;6.20;;;;;;;16.20;76.17;98346.40;272572;1271;23172;-85
2023/03/24 08:25:49;;;;;;;7.40;5.10;;;;;;;16.47;75.43;98330.83;273126;1271;22379;-85
2023/03/24 08:31:51;;;;;;;8.10;5.10;;;;;;;16.89;75.34;98321.22;272953;1269;22299;-86
2023/03/24 08:37:52;;;;;;;8.60;5.70;;;;;;;17.47;74.92;98311.98;272990;1271;22187;-85
2023/03/24 08:43:56;;;;;;;8.20;5.60;;;;;;;17.88;72.06;98304.81;272527;1271;23040;-86
2023/03/24 08:49:59;;;;;;;5.20;4.40;;;;;;;18.16;70.28;98296.30;271974;1271;22324;-85
2023/03/24 08:56:02;;;;;;;7.20;4.50;;;;;;;18.54;68.35;98289.11;273246;1272;22416;-86
2023/03/24 09:02:25;;;;;;;6.80;4.50;;;;;;;19.14;66.75;98285.23;270943;1272;22551;-85
2023/03/24 09:08:40;;;;;;;6.00;4.00;;;;;;;19.65;65.53;98283.29;270393;1271;25295;-85
2023/03/24 09:14:47;;;;;;;10.10;4.10;;;;;;;19.86;63.63;98283.85;271014;1271;22523;-85
2023/03/24 09:20:50;;;;;;;;;;;;;;;19.65;61.52;98270.77;271602;1271;22604;-85
2023/03/24 09:26:52;;;;;;;5.10;3.90;;;;;;;19.70;62.06;98258.13;270867;1272;22212;-85
2023/03/24 09:32:57;;;;;;;7.10;4.60;;;;;;;20.01;61.53;98245.20;270422;1270;22549;-85
2023/03/24 09:39:20;;;;;;;6.70;4.40;;;;;;;20.67;59.77;98238.02;270851;1269;22468;-85
2023/03/24 09:46:08;;;;;;;5.60;4.10;;;;;;;21.80;57.65;98230.08;271280;1270;22400;-85
2023/03/24 09:52:41;;;;;;;6.10;4.00;;;;;;;22.59;56.59;98218.79;272798;1269;22634;-85
2023/03/24 09:58:45;;;;;;;5.00;3.80;;;;;;;23.09;52.75;98204.56;270645;1270;22632;-84
2023/03/24 10:05:32;;;;;;;4.10;3.60;;;;;;;22.86;49.46;98195.92;270802;1269;24878;-86
2023/03/24 10:11:58;;;;;;;4.30;3.60;;;;;;;22.83;48.20;98186.31;270507;1272;22501;-85
2023/03/24 10:18:44;;;;;;;6.40;3.90;;;;;;;23.33;48.42;98178.12;270987;1270;22865;-85
2023/03/24 10:25:27;;;;;;;11.40;3.80;;;;;;;23.61;47.73;98169.92;272050;1259;22395;-86
2023/03/24 10:31:33;;;;;;;4.60;2.80;;;;;;;24.27;46.88;98162.63;272241;1270;23312;-87
2023/03/24 10:37:35;;;;;;;5.00;3.60;;;;;;;24.70;46.22;98158.67;271667;1260;22417;-86
2023/03/24 10:43:37;;;;;;;5.10;3.10;;;;;;;25.34;44.61;98152.38;273409;1272;22368;-87
2023/03/24 10:49:56;;;;;;;3.50;3.10;;;;;;;25.36;43.26;98152.85;273150;1269;22528;-87
2023/03/24 10:56:03;;;;;;;3.80;3.00;;;;;;;25.65;42.20;98145.97;272965;1270;22489;-84
2023/03/24 11:02:18;;;;;;;3.10;2.60;;;;;;;25.78;41.92;98133.65;273026;1272;22466;-85
2023/03/24 11:08:30;;;;;;;4.00;2.50;;;;;;;25.91;41.59;98135.34;273249;1269;23291;-86
2023/03/24 11:14:32;;;;;;;3.20;2.20;;;;;;;26.09;39.20;98126.92;273529;1272;22506;-86
2023/03/24 11:20:56;;;;;;;2.80;1.90;;;;;;;26.29;38.44;98119.19;271139;1270;23364;-86
2023/03/24 11:27:00;;;;;;;3.10;2.20;;;;;;;26.35;35.72;98114.55;271324;1262;22432;-88
2023/03/24 11:33:03;;;;;;;3.80;2.50;;;;;;;25.69;35.74;98109.25;273068;1271;23197;-87
2023/03/24 11:39:25;;;;;;;3.10;2.10;;;;;;;25.29;34.89;98100.38;273085;1270;22155;-87
2023/03/24 11:45:35;;;;;;;2.90;2.60;;;;;;;24.99;35.15;98091.45;272962;1270;22195;-86
2023/03/24 11:51:39;;;;;;;3.00;2.00;;;;;;;24.50;35.47;98081.84;271870;1270;22462;-86
2023/03/24 11:58:01;;;;;;;3.50;2.00;;;;;;;23.98;35.26;98078.67;271050;1272;22686;-85
2023/03/24 12:04:37;;;;;;;3.30;2.00;;;;;;;23.87;35.18;98073.38;271536;1270;22417;-85
2023/03/24 12:11:02;;;;;;;2.30;1.70;;;;;;;23.55;34.99;98070.83;273186;1269;22390;-86
2023/03/24 12:17:52;;;;;;;2.90;2.30;;;;;;;23.38;35.48;98063.20;271056;1272;22566;-86
2023/03/24 12:24:24;;;;;;;5.00;2.60;;;;;;;23.14;35.68;98061.33;272783;1270;22443;-87
2023/03/24 12:30:31;;;;;;;5.50;3.20;;;;;;;23.04;36.36;98057.36;271572;1272;22548;-86
2023/03/24 12:36:47;;;;;;;5.70;3.20;;;;;;;22.89;36.18;98047.13;272445;1269;22221;-87
2023/03/24 12:43:08;;;;;;;5.10;3.20;;;;;;;22.76;36.72;98042.22;272944;1269;22658;-88
2023/03/24 12:49:48;;;;;;;4.40;2.70;;;;;;;22.72;36.81;98038.77;273565;1270;22463;-87
2023/03/24 12:56:21;;;;;;;9.20;4.10;;;;;;;22.78;37.14;98034.80;272837;1269;22585;-87
2023/03/24 13:02:29;;;;;;;3.60;2.40;;;;;;;22.83;37.17;98028.49;273127;1270;22486;-87
2023/03/24 13:08:32;;;;;;;9.20;4.10;;;;;;;22.86;36.79;98021.19;272631;1271;22417;-88
2023/03/24 13:15:15;;;;;;;2.80;2.00;;;;;;;22.87;37.22;98022.02;272814;1269;22354;-87
2023/03/24 13:22:04;;;;;;;;;;;;;;;22.70;37.13;98018.65;273345;1270;22497;-89
2023/03/24 13:28:10;;;;;;;4.30;2.50;;;;;;;22.51;37.69;98014.38;273283;1273;22366;-86
2023/03/24 13:35:01;;;;;;;3.60;2.20;;;;;;;22.37;38.03;98011.84;271917;1269;22435;-87
2023/03/24 13:41:16;;;;;;;3.10;2.40;;;;;;;22.01;37.76;98007.64;271279;1272;22808;-87
2023/03/24 13:47:20;;;;;;;7.20;2.50;;;;;;;21.76;38.41;98003.91;271868;1273;22550;-86
2023/03/24 13:53:55;;;;;;;9.20;2.80;;;;;;;21.60;38.62;97998.48;270800;1269;22530;-87
2023/03/24 14:00:10;;;;;;;4.50;2.50;;;;;;;21.43;39.87;97997.98;273060;1272;22369;-87
2023/03/24 14:06:51;;;;;;;4.20;3.00;;;;;;;21.13;40.72;97994.30;270085;1269;23399;-86
2023/03/24 14:13:00;;;;;;;5.90;3.80;;;;;;;20.82;40.82;97989.09;271677;1270;22417;-85
2023/03/24 14:19:20;;;;;;;4.50;2.40;;;;;;;20.56;40.84;97979.77;270801;1270;24225;-86
2023/03/24 14:25:57;;;;;;;2.90;2.10;;;;;;;20.32;41.24;97969.32;271735;1272;22396;-85
2023/03/24 14:32:11;;;;;;;3.40;2.40;;;;;;;20.14;41.21;97960.88;272930;1265;22493;-85
2023/03/24 14:38:25;;;;;;;3.50;2.00;;;;;;;20.02;41.85;97959.09;273004;1270;22508;-86
2023/03/24 14:45:06;;;;;;;5.70;2.40;;;;;;;19.94;42.45;97957.00;273003;1272;22370;-86
2023/03/24 14:51:40;;;;;;;4.80;3.20;;;;;;;19.87;43.13;97953.88;272981;1270;22151;-88
2023/03/24 14:57:44;;;;;;;4.80;2.60;;;;;;;19.76;43.87;97950.77;273223;1270;22453;-85
2023/03/24 15:03:58;;;;;;;6.80;3.20;;;;;;;19.73;44.06;97946.08;271749;1270;23156;-86
2023/03/24 15:09:59;;;;;;;6.30;4.60;;;;;;;19.71;44.42;97939.57;271631;1270;25459;-86
2023/03/24 15:16:10;;;;;;;9.20;5.60;;;;;;;19.65;44.47;97930.55;269637;1270;22927;-86
2023/03/24 15:22:12;;;;;;;8.60;5.10;;;;;;;19.56;44.78;97924.09;270746;1270;23736;-86
2023/03/24 15:28:18;;;;;;;7.30;4.60;;;;;;;19.46;44.98;97917.46;272063;1270;22536;-86
2023/03/24 15:34:48;;;;;;;11.80;4.70;;;;;;;19.36;45.61;97917.70;273126;1270;23680;-86
2023/03/24 15:40:59;;;;;;;8.20;4.50;;;;;;;19.25;45.75;97915.84;271865;1269;23988;-85
2023/03/24 15:47:02;;;;;;;7.80;4.10;;;;;;;19.19;45.93;97913.88;269666;1272;22690;-86
2023/03/24 15:53:24;;;;;;;7.00;4.40;;;;;;;19.07;46.14;97914.98;271317;1270;23850;-86
2023/03/24 15:59:36;;;;;;;6.70;4.80;;;;;;;18.94;46.73;97917.72;272404;1270;22565;-86
2023/03/24 16:05:47;;;;;;;8.10;4.90;;;;;;;18.74;47.34;97922.69;272688;1270;22378;-86
2023/03/24 16:11:49;;;;;;;7.40;5.00;;;;;;;18.57;47.48;97925.40;271571;1269;22302;-85
2023/03/24 16:17:53;;;;;;;9.70;5.00;;;;;;;18.45;47.19;97922.92;272716;1270;22950;-85
2023/03/24 16:24:15;;;;;;;7.50;4.20;;;;;;;18.41;46.93;97926.48;270063;1270;23315;-85
2023/03/24 16:31:02;;;;;;;10.60;5.10;;;;;;;18.40;46.58;97933.95;270955;1269;22528;-86
2023/03/24 16:37:24;;;;;;;8.90;4.30;;;;;;;18.39;46.18;97941.61;269961;1269;22548;-86
2023/03/24 16:43:28;;;;;;;7.40;4.40;;;;;;;18.34;46.36;97948.95;269903;1270;22612;-85
2023/03/24 16:49:30;;;;;;;6.80;4.50;;;;;;;18.25;46.69;97962.52;270641;1269;87091;-85
2023/03/24 16:55:32;;;;;;;5.90;3.40;;;;;;;18.13;46.92;97973.55;273335;1270;22377;-85
2023/03/24 17:02:04;;;;;;;12.50;4.50;;;;;;;18.06;47.40;97978.21;272925;1269;22741;-86
2023/03/24 17:08:06;;;;;;;6.40;3.20;;;;;;;18.00;47.72;97988.47;269531;1269;23298;-85
2023/03/24 17:14:11;;;;;;;7.60;3.50;;;;;;;17.90;48.17;97991.51;269554;1270;22567;-85
2023/03/24 17:20:40;;;;;;;8.00;3.00;;;;;;;17.77;48.75;97995.66;269849;1260;22617;-84
2023/03/24 17:26:43;;;;;;;7.70;3.20;;;;;;;17.66;49.12;97996.74;272112;1270;22392;-85
2023/03/24 17:32:46;;;;;;;8.10;3.00;;;;;;;17.52;49.48;98000.98;272348;1270;22687;-85
2023/03/24 17:38:47;;;;;;;5.90;3.10;;;;;;;17.37;50.15;98004.48;271249;1272;22371;-85
2023/03/24 17:44:49;;;;;;;5.80;3.30;;;;;;;17.27;50.41;98005.98;272671;1270;22350;-85
2023/03/24 17:50:52;;;;;;;6.70;2.90;;;;;;;17.19;50.58;98000.13;273385;1269;22261;-85
2023/03/24 17:56:53;;;;;;;7.90;4.50;;;;;;;17.08;51.09;98004.42;273414;1270;22740;-85
2023/03/24 18:02:55;;;;;;;8.10;4.90;;;;;;;16.89;52.58;98002.54;273430;1270;22458;-85
2023/03/24 18:08:57;;;;;;;7.50;4.80;;;;;;;16.59;54.06;98009.11;271725;1269;22625;-85
2023/03/24 18:14:59;;;;;;;12.90;6.30;;;;;;;16.29;55.58;98024.60;273196;1269;22313;-85
2023/03/24 18:21:01;;;;;;;8.70;5.40;;;;;;;16.09;56.35;98038.16;271697;1269;22632;-85
2023/03/24 18:27:04;;;;;;;8.70;5.40;;;;;;;15.91;57.46;98049.57;271438;1256;22576;-85
2023/03/24 18:33:30;;;;;;;15.40;6.10;;;;;;;15.65;59.61;98060.64;271963;1270;23978;-84
2023/03/24 18:39:38;;;;;;;8.60;5.70;;;;;;;15.41;60.93;98069.75;270915;1271;22557;-85
2023/03/24 18:45:39;;;;;;;14.30;9.20;;;;;;;15.23;61.22;98074.89;270482;1271;22678;-85
2023/03/24 18:51:44;;;;;;;15.80;10.20;;;;;;;15.05;62.25;98066.92;271367;1271;25335;-85
2023/03/24 18:57:56;;;;;;;11.40;7.10;;;;;;;14.81;63.16;98058.54;272810;1271;22566;-85
2023/03/24 19:03:58;;;;;;;11.90;5.60;;;;;;;14.60;64.11;98056.77;271482;1271;23131;-85
2023/03/24 19:10:00;;;;;;;7.20;5.10;;;;;;;14.48;64.28;98059.43;270312;1270;22562;-86
2023/03/24 19:16:02;;;;;;;7.70;4.80;;;;;;;14.40;64.77;98060.68;271886;1270;22551;-85
2023/03/24 19:22:06;;;;;;;9.30;5.50;;;;;;;14.36;65.25;98068.55;272789;1270;22654;-86
2023/03/24 19:28:47;;;;;;;7.00;4.80;;;;;;;14.31;65.82;98064.97;273066;1264;23277;-86
2023/03/24 19:34:49;;;;;;;6.10;4.70;;;;;;;14.20;66.18;98047.92;272631;1272;22511;-85
2023/03/24 19:40:52;;;;;;;7.90;5.00;;;;;;;14.06;66.63;98040.46;271561;1271;22567;-86
2023/03/24 19:46:55;;;;;;;8.60;5.50;;;;;;;13.98;67.45;98024.56;273051;1271;22442;-86
2023/03/24 19:52:56;;;;;;;7.70;5.70;;;;;;;13.95;68.61;98005.51;273141;1264;22326;-87
2023/03/24 19:58:58;;;;;;;8.30;5.50;;;;;;;13.91;68.71;98010.44;272784;1260;22479;-86
2023/03/24 20:05:22;;;;;;;9.00;6.10;;;;;;;13.81;69.13;98020.45;272305;1271;22312;-85
2023/03/24 20:11:24;;;;;;;9.60;6.60;;;;;;;13.76;69.32;98015.66;271377;1270;22488;-86
2023/03/24 20:17:27;;;;;;;14.10;6.20;;;;;;;13.76;69.81;97997.75;271825;1270;22577;-87
2023/03/24 20:23:54;;;;;;;9.20;6.60;;;;;;;13.76;70.46;97989.02;271075;1271;22552;-86
2023/03/24 20:29:56;;;;;;;9.90;6.40;;;;;;;13.80;70.97;97990.30;270464;1270;22598;-85
2023/03/24 20:35:58;;;;;;;10.40;6.00;;;;;;;13.85;71.20;97991.85;272866;1272;22394;-85
2023/03/24 20:42:00;;;;;;;10.10;6.00;;;;;;;13.87;71.47;97997.88;271631;1270;23135;-85
2023/03/24 20:48:02;;;;;;;11.00;6.30;;;;;;;13.82;71.67;98008.56;270915;1270;24270;-85
2023/03/24 20:54:44;;;;;;;7.60;5.30;;;;;;;13.75;72.10;98011.21;270964;1270;22581;-86
2023/03/24 21:00:53;;;;;;;10.90;5.80;;;;;;;13.65;72.56;98024.56;269789;1271;22551;-85
2023/03/24 21:06:55;;;;;;;11.90;8.20;;;;;;;13.62;72.89;98026.75;269891;1270;22546;-84
2023/03/24 21:12:57;;;;;;;12.10;9.70;;;;;;;13.61;73.60;98027.86;270008;1272;24270;-85
2023/03/24 21:19:02;;;;;;;15.30;9.70;;;;;;;13.54;74.69;98026.95;271539;1270;22684;-86
2023/03/24 21:25:05;;;;;;;13.40;9.10;;;;;;;13.40;75.77;98026.72;270504;1271;22435;-86
2023/03/24 21:31:27;;;;;;;15.40;9.10;;;;;;;13.28;76.39;98021.63;272581;1259;23337;-86
2023/03/24 21:37:31;;;;;;;12.10;8.30;;;;;;;13.20;76.81;98016.02;270414;1270;23693;-86
2023/03/24 21:43:52;;;;;;;10.30;7.70;;;;;;;13.11;76.90;98012.31;270395;1272;22590;-85
2023/03/24 21:49:57;;;;;;;11.20;7.90;;;;;;;12.97;76.82;98000.72;270433;1271;22545;-86
2023/03/24 21:56:18;;;;;;;11.20;6.80;;;;;;;12.86;77.00;97993.65;271647;1271;22214;-86
2023/03/24 22:02:22;;;;;;;8.70;6.20;;;;;;;12.81;77.05;97994.73;270818;1272;22367;-85
2023/03/24 22:08:31;;;;;;;9.50;6.40;;;;;;;12.75;77.45;98002.04;270022;1270;22536;-85
2023/03/24 22:14:46;;;;;;;8.20;5.90;;;;;;;12.71;78.12;98007.98;269967;1272;23439;-85
2023/03/24 22:20:59;;;;;;;9.90;7.10;;;;;;;12.68;78.56;98009.02;271836;1270;22467;-85
2023/03/24 22:27:16;;;;;;;11.10;6.60;;;;;;;12.67;78.92;98006.06;271390;1271;22662;-85
2023/03/24 22:33:58;;;;;;;9.50;6.40;;;;;;;12.65;79.13;97997.38;269947;1270;22372;-85
2023/03/24 22:40:20;;;;;;;9.60;5.90;;;;;;;12.61;79.37;97991.23;270004;1274;22531;-85
2023/03/24 22:46:23;;;;;;;11.20;6.20;;;;;;;12.53;79.34;97987.33;271284;1273;23910;-85
2023/03/24 22:52:25;;;;;;;9.40;5.90;;;;;;;12.43;79.67;97982.66;269714;1274;22566;-85
2023/03/24 22:58:27;;;;;;;10.90;7.10;;;;;;;12.31;79.73;97975.13;270180;1274;25591;-85
2023/03/24 23:04:29;;;;;;;8.10;5.70;;;;;;;12.15;79.96;97975.95;268945;1268;22511;-85
2023/03/24 23:10:31;;;;;;;7.50;5.50;;;;;;;11.95;80.25;97974.70;270407;1272;22476;-85
2023/03/24 23:16:36;;;;;;;8.00;6.30;;;;;;;11.78;80.31;97979.23;271317;1271;22821;-84
2023/03/24 23:22:41;;;;;;;8.70;6.00;;;;;;;11.60;80.53;97984.41;269409;1271;22550;-84
2023/03/24 23:29:04;;;;;;;8.30;5.90;;;;;;;11.45;81.05;97986.88;272093;1271;22436;-86
2023/03/24 23:35:07;;;;;;;10.40;6.60;;;;;;;11.27;80.85;97981.48;271196;1260;23777;-85
2023/03/24 23:41:50;;;;;;;10.90;6.60;;;;;;;11.08;81.79;97972.61;272501;1271;22700;-84
2023/03/24 23:47:57;;;;;;;11.20;7.10;;;;;;;10.99;82.40;97963.61;270292;1259;22549;-85
2023/03/24 23:54:40;;;;;;;13.00;7.90;;;;;;;10.90;82.78;97966.33;269174;1265;25607;-85
